Time;durP1;ratioP1;P1;durP2;ratioP2;P2;SDS_P1;SDS_P2;PMS_P1;PMS_P2;Temp;Humidity;BMP_temperature;BMP_pressure;BME280_temperature;BME280_humidity;BME280_pressure;Samples;Min_cycle;Max_cycle;Signal;HPM_P1;HPM_P2
2021/08/14 00:01:33;;;;;;;8.32;4.68;;;;;;;27.09;40.49;100173.81;5111735;28;20077;-75
2021/08/14 00:03:58;;;;;;;6.68;4.10;;;;;;;27.30;40.74;100212.59;5093285;28;20106;-75
2021/08/14 00:06:23;;;;;;;7.82;4.75;;;;;;;27.23;40.89;100214.75;5111562;28;20019;-75
2021/08/14 00:08:49;;;;;;;7.72;4.70;;;;;;;27.19;40.95;100209.06;5111391;28;20397;-76
2021/08/14 00:11:14;;;;;;;5.38;3.80;;;;;;;27.08;40.91;100198.50;5111362;28;20103;-75
2021/08/14 00:13:40;;;;;;;5.43;3.92;;;;;;;27.10;41.18;100212.59;5111417;28;20027;-75
2021/08/14 00:16:05;;;;;;;5.63;4.07;;;;;;;27.07;41.18;100213.94;5111510;28;20476;-74
2021/08/14 00:18:31;;;;;;;8.25;4.10;;;;;;;27.00;41.34;100197.13;5111563;28;20062;-75
2021/08/14 00:20:56;;;;;;;6.60;4.22;;;;;;;26.89;41.45;100187.34;5111566;28;20016;-75
2021/08/14 00:23:21;;;;;;;6.00;4.32;;;;;;;27.07;41.80;100223.97;5111379;28;20023;-80
2021/08/14 00:25:47;;;;;;;6.65;4.15;;;;;;;27.07;41.45;100215.84;5111253;28;20508;-79
2021/08/14 00:28:12;;;;;;;7.25;4.03;;;;;;;26.94;41.29;100210.91;5093068;28;20027;-79
2021/08/14 00:30:38;;;;;;;4.60;3.78;;;;;;;26.60;41.38;100163.44;5092921;28;20027;-79
2021/08/14 00:33:03;;;;;;;8.02;4.10;;;;;;;26.96;41.31;100214.19;5111486;28;20480;-79
2021/08/14 00:35:29;;;;;;;6.00;4.43;;;;;;;26.68;41.36;100183.75;5111552;28;20023;-79
2021/08/14 00:37:54;;;;;;;7.20;4.28;;;;;;;26.55;41.48;100162.63;5111312;28;20019;-79
2021/08/14 00:40:20;;;;;;;5.85;4.28;;;;;;;26.75;41.50;100194.34;5093098;28;20024;-79
2021/08/14 00:42:45;;;;;;;13.50;4.75;;;;;;;26.86;41.72;100228.53;5110988;28;20008;-78
2021/08/14 00:45:11;;;;;;;5.72;4.22;;;;;;;26.84;42.00;100223.38;5110951;28;20027;-80
2021/08/14 00:47:42;;;;;;;7.85;4.32;;;;;;;26.83;42.05;100231.78;5111506;28;20069;-79
2021/08/14 00:50:09;;;;;;;5.95;4.10;;;;;;;26.34;42.23;100152.81;5111378;28;20403;-79
2021/08/14 00:52:34;;;;;;;6.68;4.25;;;;;;;26.62;42.47;100208.41;5110962;28;20035;-79
2021/08/14 00:55:00;;;;;;;4.57;3.97;;;;;;;26.23;42.69;100165.47;5110971;28;20419;-79
2021/08/14 00:57:25;;;;;;;4.15;3.75;;;;;;;26.61;42.73;100234.69;5092721;28;20027;-79
2021/08/14 00:59:51;;;;;;;6.18;4.00;;;;;;;26.53;42.67;100227.88;5113964;28;20020;-79
2021/08/14 01:02:17;;;;;;;7.07;4.13;;;;;;;26.48;42.65;100225.16;5114915;28;20501;-79
2021/08/14 01:04:45;;;;;;;6.45;4.18;;;;;;;26.54;42.64;100236.81;5114913;28;20107;-78
2021/08/14 01:07:10;;;;;;;7.00;4.60;;;;;;;26.06;42.68;100167.59;5096285;28;20028;-78
2021/08/14 01:09:35;;;;;;;5.82;4.13;;;;;;;26.23;42.65;100201.50;5114470;28;20050;-78
2021/08/14 01:12:04;;;;;;;5.57;4.25;;;;;;;26.43;42.46;100244.09;5114652;28;20510;-78
2021/08/14 01:14:31;;;;;;;6.70;4.45;;;;;;;26.27;42.91;100221.53;5114605;28;20032;-79
2021/08/14 01:16:56;;;;;;;8.35;4.40;;;;;;;26.04;42.90;100207.63;5114674;28;20047;-79
2021/08/14 01:19:22;;;;;;;4.18;3.38;;;;;;;26.07;43.35;100220.63;5114567;28;20024;-80
2021/08/14 01:21:51;;;;;;;6.20;3.85;;;;;;;26.16;43.32;100232.59;5114252;28;20099;-79
2021/08/14 01:24:17;;;;;;;6.43;3.92;;;;;;;25.92;43.15;100181.56;5114486;28;20449;-74
2021/08/14 01:26:44;;;;;;;8.75;4.20;;;;;;;26.25;43.21;100217.47;5114108;28;20088;-73
2021/08/14 01:29:09;;;;;;;7.60;3.88;;;;;;;26.20;43.39;100228.28;5095916;28;20023;-75
2021/08/14 01:31:35;;;;;;;8.70;4.18;;;;;;;26.13;43.34;100225.81;5114060;28;20469;-75
2021/08/14 01:34:00;;;;;;;8.77;5.03;;;;;;;26.13;43.49;100233.13;5113991;28;20023;-75
2021/08/14 01:36:25;;;;;;;5.63;3.90;;;;;;;26.12;43.30;100232.31;5113730;28;20552;-75
2021/08/14 01:38:54;;;;;;;7.40;3.97;;;;;;;26.11;43.56;100227.97;5113968;28;20024;-73
2021/08/14 01:41:20;;;;;;;6.00;4.20;;;;;;;26.12;43.78;100235.00;5113864;28;20020;-73
2021/08/14 01:44:02;;;;;;;5.50;3.90;;;;;;;26.12;43.84;100229.59;5114041;28;20083;-74
2021/08/14 01:46:34;;;;;;;6.53;4.50;;;;;;;26.05;44.11;100229.03;5113775;28;20506;-73
2021/08/14 01:49:00;;;;;;;8.02;4.18;;;;;;;25.82;43.79;100191.53;5113687;28;20023;-74
2021/08/14 01:51:28;;;;;;;7.68;3.85;;;;;;;26.07;43.85;100228.75;5113598;28;20062;-74
2021/08/14 01:53:56;;;;;;;5.97;4.32;;;;;;;26.04;44.04;100229.28;5113872;28;20416;-74
2021/08/14 01:56:23;;;;;;;7.20;4.38;;;;;;;26.03;44.23;100223.06;5113709;28;20020;-74
2021/08/14 01:58:49;;;;;;;7.00;4.18;;;;;;;25.96;44.21;100228.69;5113680;28;20031;-73
2021/08/14 02:01:15;;;;;;;7.10;4.45;;;;;;;25.77;44.42;100213.16;5113750;28;20099;-74
2021/08/14 02:03:42;;;;;;;8.27;5.10;;;;;;;25.58;44.87;100191.91;5113445;28;20070;-74
2021/08/14 02:06:08;;;;;;;6.25;4.57;;;;;;;25.73;45.22;100223.69;5113570;28;20030;-74
2021/08/14 02:08:35;;;;;;;8.80;4.97;;;;;;;25.62;45.18;100224.66;5113672;28;20106;-73
2021/08/14 02:11:01;;;;;;;8.43;4.38;;;;;;;25.62;45.81;100232.78;5112539;28;20028;-73
2021/08/14 02:13:29;;;;;;;5.03;4.47;;;;;;;25.54;45.85;100230.53;5113340;28;20024;-74
2021/08/14 02:15:55;;;;;;;6.00;4.63;;;;;;;25.38;46.02;100220.69;5113461;28;20035;-74
2021/08/14 02:18:20;;;;;;;5.55;4.80;;;;;;;25.18;46.09;100200.50;5113599;28;20404;-73
2021/08/14 02:20:45;;;;;;;6.20;5.15;;;;;;;25.26;46.30;100229.78;5113219;28;20019;-74
2021/08/14 02:23:11;;;;;;;6.82;5.40;;;;;;;25.18;46.42;100226.72;5094764;28;20043;-75
2021/08/14 02:25:36;;;;;;;6.55;4.90;;;;;;;25.10;46.56;100219.91;5112838;28;20407;-73
2021/08/14 02:28:02;;;;;;;5.00;4.50;;;;;;;25.07;46.96;100222.31;5113109;28;20023;-74
2021/08/14 02:30:27;;;;;;;7.05;5.10;;;;;;;25.05;46.95;100225.25;5113051;28;20404;-74
2021/08/14 02:32:52;;;;;;;8.20;4.85;;;;;;;24.96;47.00;100213.25;5094678;28;20023;-74
2021/08/14 02:35:18;;;;;;;6.40;5.03;;;;;;;25.02;46.90;100223.06;5112989;28;20095;-75
2021/08/14 02:37:43;;;;;;;7.53;4.93;;;;;;;24.63;47.13;100163.81;5112917;28;20106;-74
2021/08/14 02:40:09;;;;;;;5.53;5.00;;;;;;;24.93;47.14;100221.88;5112924;28;20018;-74
2021/08/14 02:42:41;;;;;;;14.82;5.90;;;;;;;24.73;47.38;100202.78;5112838;28;20414;-74
2021/08/14 02:45:07;;;;;;;6.82;5.00;;;;;;;24.81;47.55;100216.63;5112422;28;20068;-72
2021/08/14 02:47:33;;;;;;;5.88;4.75;;;;;;;24.36;47.81;100138.66;5112791;28;20110;-75
2021/08/14 02:49:58;;;;;;;7.22;5.22;;;;;;;24.69;47.60;100203.28;5112662;28;20099;-72
2021/08/14 02:52:24;;;;;;;6.65;4.88;;;;;;;24.33;47.91;100160.75;5094183;28;20023;-76
2021/08/14 02:54:49;;;;;;;6.45;5.30;;;;;;;24.41;48.15;100179.19;5112665;28;20028;-73
2021/08/14 02:57:14;;;;;;;7.60;5.60;;;;;;;24.27;48.25;100165.28;5112445;28;20373;-74
2021/08/14 02:59:40;;;;;;;8.65;6.05;;;;;;;24.26;48.34;100169.03;5112220;28;20103;-72
2021/08/14 03:02:05;;;;;;;8.88;5.80;;;;;;;24.43;48.49;100214.84;5112111;28;20019;-72
2021/08/14 03:04:30;;;;;;;7.88;5.65;;;;;;;24.30;48.63;100207.16;5094057;28;20026;-76
2021/08/14 03:06:56;;;;;;;8.73;5.80;;;;;;;24.12;49.12;100191.25;5094177;28;20019;-76
2021/08/14 03:09:22;;;;;;;7.90;5.10;;;;;;;24.26;48.84;100214.91;5112489;28;20097;-75
2021/08/14 03:11:47;;;;;;;10.00;6.03;;;;;;;24.24;49.02;100210.81;5112268;28;20456;-74
2021/08/14 03:14:13;;;;;;;7.50;5.70;;;;;;;24.14;49.11;100208.81;5112219;28;20106;-75
2021/08/14 03:16:38;;;;;;;11.43;5.55;;;;;;;23.92;49.14;100195.31;5093929;28;20057;-76
2021/08/14 03:19:03;;;;;;;12.15;5.40;;;;;;;23.82;49.36;100215.94;5112047;28;20022;-75
2021/08/14 03:21:29;;;;;;;8.07;6.18;;;;;;;23.86;49.54;100223.28;5093738;28;20020;-75
2021/08/14 03:23:55;;;;;;;7.57;5.97;;;;;;;23.53;49.79;100177.44;5112190;28;20031;-75
2021/08/14 03:26:21;;;;;;;9.05;6.03;;;;;;;23.53;49.78;100188.22;5111962;28;20023;-75
2021/08/14 03:28:46;;;;;;;8.25;5.63;;;;;;;23.71;49.90;100210.38;5111936;28;20484;-75
2021/08/14 03:31:11;;;;;;;10.18;6.18;;;;;;;23.63;49.91;100200.00;5112009;28;20092;-75
2021/08/14 03:33:37;;;;;;;15.75;6.32;;;;;;;23.70;49.99;100218.72;5111818;28;20161;-75
2021/08/14 03:36:02;;;;;;;10.38;6.07;;;;;;;23.56;49.92;100203.94;5112112;28;20015;-75
2021/08/14 03:38:28;;;;;;;9.48;6.25;;;;;;;23.40;50.06;100184.81;5112031;28;20019;-76
2021/08/14 03:40:53;;;;;;;9.40;6.55;;;;;;;23.59;50.26;100223.13;5112055;28;20034;-75
2021/08/14 03:43:19;;;;;;;7.53;6.03;;;;;;;23.53;50.35;100221.38;5111760;28;20480;-74
2021/08/14 03:45:48;;;;;;;13.80;7.10;;;;;;;23.44;50.66;100223.69;5111867;28;20020;-75
2021/08/14 03:48:13;;;;;;;8.02;5.90;;;;;;;23.13;50.66;100178.47;5093560;28;20023;-75
2021/08/14 03:50:39;;;;;;;9.05;6.45;;;;;;;23.07;50.69;100174.06;5112173;28;20019;-72
2021/08/14 03:53:04;;;;;;;9.35;6.18;;;;;;;23.45;50.63;100230.72;5111821;28;20468;-75
2021/08/14 03:55:30;;;;;;;10.23;6.45;;;;;;;23.39;50.59;100220.09;5111672;28;20026;-74
2021/08/14 03:57:55;;;;;;;8.30;6.50;;;;;;;23.45;50.47;100230.72;5111396;28;20028;-75
2021/08/14 04:00:21;;;;;;;11.35;7.22;;;;;;;23.18;50.60;100202.78;5111438;28;20039;-75
2021/08/14 04:02:46;;;;;;;11.52;6.57;;;;;;;23.31;50.78;100210.53;5111686;28;20092;-75
2021/08/14 04:05:12;;;;;;;6.93;6.22;;;;;;;23.43;50.64;100227.44;5111750;28;20016;-75
2021/08/14 04:07:37;;;;;;;10.63;7.05;;;;;;;23.48;50.45;100225.88;5111624;28;20038;-76
2021/08/14 04:10:03;;;;;;;12.73;6.07;;;;;;;23.50;50.52;100221.88;5093267;28;20016;-75
2021/08/14 04:12:28;;;;;;;11.57;6.95;;;;;;;23.14;50.40;100159.34;5111391;28;20024;-74
2021/08/14 04:14:54;;;;;;;9.77;6.38;;;;;;;23.63;50.15;100229.66;5111722;28;20476;-75
2021/08/14 04:17:19;;;;;;;12.27;6.88;;;;;;;23.63;50.23;100229.66;5111399;28;20019;-75
2021/08/14 04:19:44;;;;;;;13.50;7.55;;;;;;;23.65;50.29;100232.94;5111382;28;20020;-73
2021/08/14 04:22:10;;;;;;;11.27;7.30;;;;;;;23.65;50.24;100232.13;5111466;28;20081;-76
2021/08/14 04:24:35;;;;;;;11.45;6.63;;;;;;;23.65;50.19;100232.94;5093107;28;20027;-75
2021/08/14 04:27:01;;;;;;;14.18;7.82;;;;;;;23.56;50.28;100231.72;5111250;28;20032;-76
2021/08/14 04:29:28;;;;;;;10.73;6.68;;;;;;;23.65;50.17;100238.31;5111574;28;20107;-75
2021/08/14 04:31:54;;;;;;;19.13;7.65;;;;;;;23.44;50.21;100212.09;5111405;28;20500;-75
2021/08/14 04:34:19;;;;;;;8.73;6.85;;;;;;;23.66;50.32;100244.53;5113738;28;20026;-74
2021/08/14 04:36:44;;;;;;;8.45;6.43;;;;;;;23.69;50.14;100242.16;5115513;28;20016;-75
2021/08/14 04:39:10;;;;;;;14.10;6.97;;;;;;;23.69;50.31;100241.34;5115084;28;20396;-74
2021/08/14 04:41:35;;;;;;;11.32;6.57;;;;;;;23.55;50.29;100216.59;5115235;28;20054;-74
2021/08/14 04:44:01;;;;;;;9.20;7.25;;;;;;;23.56;50.22;100220.13;5096932;28;20026;-74
2021/08/14 04:46:26;;;;;;;9.68;7.30;;;;;;;23.67;50.36;100243.47;5115393;28;20102;-76
2021/08/14 04:48:52;;;;;;;9.90;7.57;;;;;;;23.57;50.62;100235.22;5115091;28;20057;-75
2021/08/14 04:51:17;;;;;;;12.45;7.25;;;;;;;23.38;50.51;100191.50;5114910;28;20099;-74
2021/08/14 04:53:43;;;;;;;9.32;6.93;;;;;;;23.51;50.33;100225.41;5114773;28;20023;-75
2021/08/14 04:56:08;;;;;;;11.32;6.80;;;;;;;23.80;50.50;100243.16;5114665;28;20045;-75
2021/08/14 04:58:34;;;;;;;9.15;6.90;;;;;;;23.65;50.35;100214.06;5114737;28;20153;-75
2021/08/14 05:00:59;;;;;;;10.23;6.78;;;;;;;23.87;50.46;100243.78;5114731;28;20412;-75
2021/08/14 05:03:25;;;;;;;8.75;6.47;;;;;;;23.94;50.32;100246.31;5114521;28;20023;-75
2021/08/14 05:05:50;;;;;;;9.60;6.50;;;;;;;23.65;50.20;100184.41;5114491;28;20024;-75
2021/08/14 05:08:15;;;;;;;9.00;6.53;;;;;;;24.06;50.01;100239.75;5114855;28;20027;-75
2021/08/14 05:10:41;;;;;;;10.50;7.20;;;;;;;24.10;49.96;100240.06;5114682;28;20020;-73
2021/08/14 05:13:06;;;;;;;9.63;6.90;;;;;;;23.89;49.80;100201.22;5114255;28;20027;-75
2021/08/14 05:15:32;;;;;;;10.15;7.30;;;;;;;24.17;49.76;100235.28;5114310;28;20128;-75
2021/08/14 05:17:57;;;;;;;10.55;7.95;;;;;;;23.80;49.77;100164.94;5114530;28;20556;-75
2021/08/14 05:20:23;;;;;;;11.30;7.18;;;;;;;24.31;49.60;100241.97;5114502;28;20024;-74
2021/08/14 05:22:48;;;;;;;8.90;6.78;;;;;;;23.85;49.83;100164.19;5114605;28;20040;-75
2021/08/14 05:25:13;;;;;;;10.73;7.10;;;;;;;24.44;49.54;100239.97;5114264;28;20034;-75
2021/08/14 05:27:39;;;;;;;12.63;7.40;;;;;;;24.34;49.54;100205.56;5096055;28;20024;-75
2021/08/14 05:30:05;;;;;;;11.23;7.47;;;;;;;24.61;49.49;100238.84;5114300;28;20020;-74
2021/08/14 05:32:30;;;;;;;10.23;7.40;;;;;;;24.68;49.02;100235.94;5114118;28;20027;-75
2021/08/14 05:34:55;;;;;;;11.52;7.55;;;;;;;24.76;48.94;100238.19;5114003;28;20099;-75
2021/08/14 05:37:21;;;;;;;9.70;7.00;;;;;;;24.85;48.88;100233.16;5113909;28;20020;-75
2021/08/14 05:39:46;;;;;;;9.57;7.28;;;;;;;24.82;48.47;100214.75;5113904;28;20449;-74
2021/08/14 05:42:11;;;;;;;13.00;7.07;;;;;;;25.04;48.78;100237.16;5113919;28;20011;-75
2021/08/14 05:44:37;;;;;;;8.45;6.60;;;;;;;25.15;48.72;100246.16;5113935;28;20020;-75
2021/08/14 05:47:03;;;;;;;8.60;5.40;;;;;;;25.24;48.08;100247.31;5114039;28;20407;-74
2021/08/14 05:49:28;;;;;;;8.15;5.30;;;;;;;25.28;48.05;100248.47;5095564;28;20501;-75
2021/08/14 05:51:54;;;;;;;8.65;4.38;;;;;;;25.11;47.68;100221.53;5113724;28;20483;-74
2021/08/14 05:54:19;;;;;;;6.07;4.20;;;;;;;25.28;47.67;100249.28;5113693;28;20123;-75
2021/08/14 05:56:46;;;;;;;10.48;5.40;;;;;;;25.31;47.57;100237.94;5095260;28;20031;-74
2021/08/14 05:59:11;;;;;;;5.65;3.95;;;;;;;25.00;47.32;100188.22;5113758;28;20020;-74
2021/08/14 06:01:37;;;;;;;5.47;3.58;;;;;;;25.40;47.21;100235.59;5113541;28;20396;-75
2021/08/14 06:04:03;;;;;;;6.60;4.25;;;;;;;25.35;47.00;100230.13;5113744;28;20412;-75
2021/08/14 06:06:28;;;;;;;5.90;3.58;;;;;;;25.18;47.24;100197.00;5113621;28;20020;-75
2021/08/14 06:08:53;;;;;;;5.28;4.15;;;;;;;25.57;46.95;100233.53;5113497;28;20030;-75
2021/08/14 06:11:19;;;;;;;6.10;3.92;;;;;;;25.23;46.85;100180.81;5113415;28;20049;-74
2021/08/14 06:13:44;;;;;;;6.93;3.88;;;;;;;25.63;46.96;100229.00;5113394;28;20026;-75
2021/08/14 06:16:12;;;;;;;8.27;4.47;;;;;;;25.57;46.60;100205.69;5094933;28;20393;-75
2021/08/14 06:18:41;;;;;;;6.20;3.97;;;;;;;25.66;46.40;100190.63;5113247;28;20055;-75
2021/08/14 06:21:10;;;;;;;7.50;4.50;;;;;;;26.03;45.91;100236.59;5113318;28;20019;-75
2021/08/14 06:23:36;;;;;;;4.68;3.95;;;;;;;25.73;45.71;100176.88;5113250;28;20046;-79
2021/08/14 06:26:02;;;;;;;9.68;4.00;;;;;;;26.09;45.47;100234.72;5094664;28;20583;-79
2021/08/14 06:28:27;;;;;;;7.13;3.85;;;;;;;26.07;45.55;100228.75;5094800;28;20055;-79
2021/08/14 06:30:52;;;;;;;6.32;4.00;;;;;;;25.67;45.56;100157.09;5113173;28;20020;-79
2021/08/14 06:33:18;;;;;;;9.10;4.05;;;;;;;26.16;45.36;100228.00;5112988;28;20480;-79
2021/08/14 06:35:43;;;;;;;6.22;4.38;;;;;;;26.21;45.42;100232.63;5112888;28;20027;-79
2021/08/14 06:38:09;;;;;;;6.85;4.15;;;;;;;26.27;45.19;100228.84;5094554;28;20027;-79
2021/08/14 06:40:35;;;;;;;6.35;4.20;;;;;;;26.36;45.09;100232.69;5112728;28;20059;-79
2021/08/14 06:43:01;;;;;;;5.45;3.72;;;;;;;26.21;45.04;100206.34;5112894;28;20411;-79
2021/08/14 06:45:26;;;;;;;6.20;4.05;;;;;;;26.34;45.21;100229.44;5094749;28;20112;-79
2021/08/14 06:47:51;;;;;;;5.70;4.03;;;;;;;26.36;44.89;100232.69;5112865;28;20477;-79
2021/08/14 06:50:18;;;;;;;6.80;3.53;;;;;;;26.31;44.89;100213.69;5112642;28;20026;-79
2021/08/14 06:52:44;;;;;;;7.32;3.80;;;;;;;25.83;44.77;100142.56;5094279;28;20543;-79
2021/08/14 06:55:09;;;;;;;5.25;3.53;;;;;;;25.95;44.47;100154.00;5112644;28;20035;-79
2021/08/14 06:57:35;;;;;;;6.80;3.72;;;;;;;26.50;44.38;100222.19;5112132;28;20028;-80
2021/08/14 07:00:00;;;;;;;6.88;5.18;;;;;;;26.51;44.03;100221.09;5112401;28;20054;-79
2021/08/14 07:02:26;;;;;;;8.88;5.97;;;;;;;26.48;44.54;100219.75;5093870;28;20102;-80
2021/08/14 07:04:52;;;;;;;8.23;5.50;;;;;;;26.29;44.01;100191.50;5112168;28;20019;-80
2021/08/14 07:07:17;;;;;;;7.05;4.85;;;;;;;26.41;43.98;100197.50;5112137;28;20066;-79
2021/08/14 07:09:43;;;;;;;6.28;4.72;;;;;;;26.38;44.07;100191.81;5094067;28;20037;-79
2021/08/14 07:12:09;;;;;;;7.53;4.53;;;;;;;26.43;43.84;100181.00;5112041;28;20031;-79
2021/08/14 07:14:34;;;;;;;6.47;4.18;;;;;;;26.52;43.16;100174.78;5112137;28;20470;-79
2021/08/14 07:17:00;;;;;;;8.00;4.18;;;;;;;26.73;42.93;100199.22;5112169;28;20024;-79
2021/08/14 07:19:25;;;;;;;5.82;3.92;;;;;;;26.70;42.55;100180.78;5112293;28;20053;-77
2021/08/14 07:21:51;;;;;;;6.07;3.97;;;;;;;26.98;42.36;100220.16;5112150;28;20072;-79
2021/08/14 07:24:17;;;;;;;7.22;3.58;;;;;;;27.07;42.20;100222.06;5112132;28;20028;-75
2021/08/14 07:26:43;;;;;;;5.60;4.00;;;;;;;26.79;41.96;100161.06;5112077;28;20539;-76
2021/08/14 07:29:08;;;;;;;6.50;4.03;;;;;;;27.22;41.28;100216.66;5111883;28;20039;-75
2021/08/14 07:31:34;;;;;;;4.63;3.60;;;;;;;27.30;40.94;100215.28;5093701;28;20039;-74
2021/08/14 07:33:59;;;;;;;9.02;4.50;;;;;;;27.21;40.76;100184.38;5112052;28;20012;-75
2021/08/14 07:36:24;;;;;;;4.28;3.55;;;;;;;27.19;40.80;100165.69;5112006;28;20488;-76
2021/08/14 07:38:50;;;;;;;7.28;3.72;;;;;;;27.52;40.52;100206.91;5111925;28;20019;-75
2021/08/14 07:41:16;;;;;;;6.35;3.83;;;;;;;27.63;40.17;100216.66;5111805;28;20024;-75
2021/08/14 07:43:42;;;;;;;5.13;3.85;;;;;;;27.22;39.66;100132.59;5111721;28;20144;-75
2021/08/14 07:46:09;;;;;;;6.68;4.63;;;;;;;27.79;39.15;100212.03;5093506;28;20507;-75
2021/08/14 07:48:35;;;;;;;5.47;4.05;;;;;;;27.77;38.82;100204.16;5093412;28;20484;-75
2021/08/14 07:51:01;;;;;;;5.13;4.40;;;;;;;27.81;38.61;100209.84;5111677;28;20016;-75
2021/08/14 07:53:27;;;;;;;5.20;4.70;;;;;;;27.59;38.65;100166.72;5111664;28;20026;-76
2021/08/14 07:55:52;;;;;;;5.00;4.25;;;;;;;27.85;38.54;100197.34;5111735;28;20540;-75
2021/08/14 07:58:18;;;;;;;4.95;3.85;;;;;;;27.95;38.14;100210.88;5111704;28;20024;-76
2021/08/14 08:00:43;;;;;;;4.35;3.58;;;;;;;27.88;37.63;100183.22;5093241;28;20461;-77
2021/08/14 08:03:10;;;;;;;6.82;3.95;;;;;;;28.17;37.32;100210.53;5111883;28;20058;-74
2021/08/14 08:05:37;;;;;;;6.20;4.07;;;;;;;28.23;37.13;100206.72;5093243;28;20032;-74
2021/08/14 08:08:04;;;;;;;10.40;4.78;;;;;;;28.38;36.86;100201.25;5111769;28;20024;-75
2021/08/14 08:10:29;;;;;;;5.40;4.00;;;;;;;28.53;36.84;100215.84;5115680;28;20136;-76
2021/08/14 08:12:55;;;;;;;10.52;4.47;;;;;;;28.38;36.27;100179.53;5115581;28;20027;-75
2021/08/14 08:15:21;;;;;;;4.40;4.00;;;;;;;28.63;36.29;100203.00;5115684;28;20050;-75
2021/08/14 08:17:47;;;;;;;4.95;3.72;;;;;;;28.65;36.74;100211.69;5115709;28;20408;-76
2021/08/14 08:20:14;;;;;;;4.82;3.65;;;;;;;28.70;35.77;100198.06;5115541;28;20023;-75
2021/08/14 08:22:40;;;;;;;8.57;4.47;;;;;;;28.74;35.49;100182.84;5115474;28;20522;-73
2021/08/14 08:25:07;;;;;;;7.57;4.00;;;;;;;28.84;36.08;100190.13;5115296;28;20027;-75
2021/08/14 08:27:35;;;;;;;7.25;4.38;;;;;;;29.00;34.86;100193.56;5115423;28;20058;-75
2021/08/14 08:30:00;;;;;;;9.05;4.65;;;;;;;28.89;34.80;100160.19;5115510;28;20054;-73
2021/08/14 08:32:26;;;;;;;6.65;4.22;;;;;;;29.22;34.51;100190.41;5115236;28;20094;-72
2021/08/14 08:34:51;;;;;;;4.45;3.92;;;;;;;29.20;34.04;100179.00;5115014;28;20077;-76
2021/08/14 08:37:17;;;;;;;5.10;3.40;;;;;;;29.18;33.94;100162.97;5115021;28;20023;-75
2021/08/14 08:39:42;;;;;;;7.68;4.80;;;;;;;29.46;33.66;100183.13;5115315;28;20476;-76
2021/08/14 08:42:08;;;;;;;7.05;4.57;;;;;;;29.31;34.25;100145.16;5115315;28;20022;-74
2021/08/14 08:44:34;;;;;;;8.75;4.63;;;;;;;29.26;34.01;100115.28;5114891;28;20539;-75
2021/08/14 08:47:00;;;;;;;8.98;5.65;;;;;;;29.76;33.90;100175.75;5114860;28;20076;-76
2021/08/14 08:49:27;;;;;;;5.88;4.30;;;;;;;29.95;33.73;100184.78;5114877;28;20458;-73
2021/08/14 08:51:54;;;;;;;11.00;6.10;;;;;;;30.06;33.47;100183.59;5114782;28;20080;-73
2021/08/14 08:54:19;;;;;;;6.20;4.63;;;;;;;30.05;32.65;100168.34;5114929;28;20051;-75
2021/08/14 08:56:46;;;;;;;5.68;4.10;;;;;;;30.10;32.96;100187.34;5114917;28;20128;-74
2021/08/14 08:59:12;;;;;;;6.00;4.25;;;;;;;29.92;32.47;100128.19;5096308;28;20030;-75
2021/08/14 09:01:39;;;;;;;5.78;4.10;;;;;;;30.21;32.38;100167.06;5114619;28;20047;-76
2021/08/14 09:04:28;;;;;;;5.75;4.05;;;;;;;30.22;32.49;100168.66;5114670;28;20028;-73
2021/08/14 09:06:55;;;;;;;5.78;4.35;;;;;;;30.13;32.44;100120.59;5114652;28;20015;-75
2021/08/14 09:09:29;;;;;;;6.50;4.18;;;;;;;30.58;32.17;100154.56;5114591;28;20458;-75
2021/08/14 09:12:00;;;;;;;6.47;4.43;;;;;;;30.75;31.78;100154.06;5114558;28;20106;-73
2021/08/14 09:14:28;;;;;;;6.28;3.97;;;;;;;30.94;31.71;100150.19;5114715;28;20035;-74
2021/08/14 09:17:07;;;;;;;4.80;4.28;;;;;;;30.97;31.26;100135.97;5114343;28;20402;-74
2021/08/14 09:19:34;;;;;;;6.55;4.03;;;;;;;31.26;31.65;100152.16;5113886;28;20027;-74
2021/08/14 09:22:16;;;;;;;6.88;4.43;;;;;;;31.35;30.97;100133.16;5114280;28;20077;-73
2021/08/14 09:24:43;;;;;;;7.57;4.47;;;;;;;31.46;30.81;100144.69;5114443;28;20093;-76
2021/08/14 09:27:15;;;;;;;6.40;4.28;;;;;;;31.64;30.33;100140.25;5114140;28;20024;-73
2021/08/14 09:29:43;;;;;;;5.32;4.15;;;;;;;31.57;30.99;100136.00;5113995;28;20027;-75
2021/08/14 09:32:11;;;;;;;5.82;5.00;;;;;;;31.80;30.63;100145.13;5113720;28;20028;-72
2021/08/14 09:34:42;;;;;;;9.07;6.20;;;;;;;31.80;30.71;100093.25;5114169;28;20023;-75
2021/08/14 09:37:13;;;;;;;6.35;4.65;;;;;;;32.21;30.21;100127.91;5114062;28;20496;-72
2021/08/14 09:39:52;;;;;;;;;;;;;;;32.21;30.13;100123.25;5114301;28;20030;-76
2021/08/14 09:42:19;;;;;;;6.50;4.22;;;;;;;32.53;30.29;100129.66;5113918;28;20407;-74
2021/08/14 09:44:44;;;;;;;8.30;5.78;;;;;;;32.67;29.82;100116.72;5095456;28;20404;-76
2021/08/14 09:47:31;;;;;;;6.47;4.38;;;;;;;32.81;29.44;100111.25;5095427;28;20043;-75
2021/08/14 09:49:57;;;;;;;4.68;4.28;;;;;;;32.89;29.41;100115.16;5113651;28;20114;-75
2021/08/14 09:52:25;;;;;;;6.32;5.07;;;;;;;33.03;29.37;100102.19;5113618;28;20536;-76
2021/08/14 09:54:52;;;;;;;6.90;5.20;;;;;;;33.01;28.86;100096.25;5094242;28;20427;-76
2021/08/14 09:57:19;;;;;;;5.07;4.40;;;;;;;33.26;28.80;100117.44;5113726;28;20030;-74
2021/08/14 09:59:46;;;;;;;5.80;4.80;;;;;;;33.45;28.40;100107.13;5113784;28;20019;-75
2021/08/14 10:02:16;;;;;;;6.57;5.40;;;;;;;33.64;28.27;100104.13;5095141;28;20020;-75
2021/08/14 10:04:42;;;;;;;6.57;4.68;;;;;;;33.60;28.04;100064.00;5113624;28;20084;-75
2021/08/14 10:07:08;;;;;;;8.15;5.25;;;;;;;33.95;27.62;100095.03;5113605;28;20063;-75
2021/08/14 10:09:34;;;;;;;5.03;4.35;;;;;;;33.77;27.79;100086.75;5113612;28;20028;-74
2021/08/14 10:12:00;;;;;;;8.05;4.93;;;;;;;33.37;27.95;100094.19;5113598;28;20032;-74
2021/08/14 10:14:26;;;;;;;4.97;4.47;;;;;;;32.91;28.15;100034.41;5094965;28;20169;-74
2021/08/14 10:16:53;;;;;;;6.13;4.50;;;;;;;33.29;27.64;100081.22;5113424;28;20152;-74
2021/08/14 10:19:20;;;;;;;6.25;4.45;;;;;;;33.32;27.44;100064.22;5113214;28;20035;-74
2021/08/14 10:21:49;;;;;;;6.32;4.25;;;;;;;33.57;26.88;100068.19;5113247;28;20016;-73
2021/08/14 10:24:14;;;;;;;4.88;4.18;;;;;;;33.78;26.76;100071.13;5113455;28;20060;-75
2021/08/14 10:26:40;;;;;;;6.03;4.70;;;;;;;33.60;26.92;100033.88;5094690;28;20028;-74
2021/08/14 10:29:05;;;;;;;6.57;4.47;;;;;;;33.82;25.95;100031.03;5113238;28;20043;-74
2021/08/14 10:31:30;;;;;;;4.93;4.43;;;;;;;34.05;26.53;100067.31;5112255;28;20024;-74
2021/08/14 10:33:59;;;;;;;4.63;3.90;;;;;;;34.38;25.53;100057.53;5112977;28;20084;-74
2021/08/14 10:36:27;;;;;;;4.43;3.90;;;;;;;34.66;25.99;100057.16;5112962;28;20023;-74
2021/08/14 10:38:53;;;;;;;6.05;3.90;;;;;;;34.71;25.42;100057.78;5112963;28;20031;-74
2021/08/14 10:41:20;;;;;;;6.68;4.07;;;;;;;34.65;25.06;100064.59;5112728;28;20022;-73
2021/08/14 10:43:54;;;;;;;7.18;4.32;;;;;;;34.89;24.89;100049.53;5112751;28;20028;-74
2021/08/14 10:46:35;;;;;;;4.80;4.30;;;;;;;35.08;24.56;100041.75;5112545;28;20084;-75
2021/08/14 10:49:00;;;;;;;5.15;3.88;;;;;;;35.09;24.45;100015.09;5112660;28;20034;-73
2021/08/14 10:51:48;;;;;;;7.47;3.97;;;;;;;35.23;24.07;100043.13;5112567;28;20032;-74
2021/08/14 10:54:14;;;;;;;4.43;3.65;;;;;;;35.31;24.01;100036.78;5112508;28;20479;-75
2021/08/14 10:56:51;;;;;;;5.97;3.78;;;;;;;35.40;23.62;100042.28;5112313;28;20118;-75
2021/08/14 10:59:48;;;;;;;7.38;4.30;;;;;;;34.94;23.84;100022.75;5112440;28;20036;-74
2021/08/14 11:02:13;;;;;;;6.60;3.75;;;;;;;34.79;24.51;100033.41;5088739;28;20035;-74
2021/08/14 11:04:48;;;;;;;4.60;4.00;;;;;;;34.28;24.32;99980.28;5112343;28;20050;-76
2021/08/14 11:07:20;;;;;;;6.55;4.15;;;;;;;34.75;24.40;100033.25;5112160;28;20473;-76
2021/08/14 11:10:01;;;;;;;4.80;4.10;;;;;;;34.71;24.03;100038.59;5112506;28;20031;-76
2021/08/14 11:12:40;;;;;;;4.10;3.60;;;;;;;34.22;23.67;100028.97;5112296;28;20023;-75
2021/08/14 11:15:25;;;;;;;5.45;3.88;;;;;;;33.85;24.85;100021.38;5112526;28;20027;-76
2021/08/14 11:17:52;;;;;;;4.82;4.30;;;;;;;33.73;24.95;100021.97;5112211;28;20042;-76
2021/08/14 11:20:21;;;;;;;6.50;4.47;;;;;;;34.14;24.46;100015.25;5112145;28;20072;-75
2021/08/14 11:22:48;;;;;;;6.72;3.95;;;;;;;34.28;24.08;99992.03;5093921;28;20020;-74